Terminal Aerodrome Forecast
Issued by NWS

Home | Current Version | Previous Version | Text Only | Print | Product List | Glossary On
Versions: 1 2 3 4 5 6 7 8 9 10 11 12 13 14 15
000
FTUS42 KTBW 222349
TAFPIE
TAF
KPIE 222349Z 2300/2324 23011KT P6SM VCTS SCT030CB SCT110
     FM230200 15005KT P6SM SCT025 BKN100
     FM231300 18011KT P6SM FEW025 BKN050
     FM231700 22013G21KT P6SM BKN050 OVC100=

USA.gov is the U.S. government's official web portal to all federal, state and local government web resources and services.